createdAt,value
2022-11-24T00:00:00.308Z,87
2022-11-24T00:10:00.315Z,87
2022-11-24T00:20:00.310Z,87
2022-11-24T00:30:00.353Z,87
2022-11-24T00:40:00.330Z,87
2022-11-24T00:50:01.100Z,87
2022-11-24T01:00:00.310Z,87
2022-11-24T01:10:00.310Z,87
2022-11-24T01:20:00.324Z,87
2022-11-24T01:30:00.326Z,87
2022-11-24T01:40:00.329Z,87
2022-11-24T01:50:00.306Z,87
2022-11-24T02:00:00.390Z,87
2022-11-24T02:10:00.309Z,87
2022-11-24T02:20:00.327Z,87
2022-11-24T02:30:00.301Z,87
2022-11-24T02:40:00.319Z,87
2022-11-24T02:50:00.456Z,87
2022-11-24T03:00:00.393Z,87
2022-11-24T03:10:00.305Z,87
2022-11-24T03:20:05.372Z,87
2022-11-24T03:30:00.362Z,87
2022-11-24T03:40:00.344Z,87
2022-11-24T03:50:00.342Z,87
2022-11-24T04:00:00.365Z,88
2022-11-24T04:10:00.307Z,88
2022-11-24T04:20:00.349Z,87
2022-11-24T04:30:00.327Z,87
2022-11-24T04:40:00.312Z,87
2022-11-24T04:50:00.485Z,87
2022-11-24T05:00:00.439Z,87
2022-11-24T05:10:00.343Z,87
2022-11-24T05:20:00.316Z,87
2022-11-24T05:30:00.465Z,88
2022-11-24T05:40:00.324Z,87
2022-11-24T05:50:00.516Z,87
2022-11-24T06:00:00.442Z,87
2022-11-24T06:10:00.365Z,88
2022-11-24T06:20:00.329Z,87
2022-11-24T06:30:00.370Z,88
2022-11-24T06:40:00.339Z,88
2022-11-24T06:50:00.327Z,88
2022-11-24T07:00:00.390Z,88
2022-11-24T07:10:00.308Z,88
2022-11-24T07:20:00.398Z,87
2022-11-24T07:30:00.351Z,88
2022-11-24T07:40:00.379Z,88
2022-11-24T07:50:00.368Z,88
2022-11-24T08:00:00.380Z,87
2022-11-24T08:10:00.342Z,88
2022-11-24T08:20:00.374Z,88
2022-11-24T08:30:00.366Z,88
2022-11-24T08:40:00.327Z,88
2022-11-24T08:50:00.323Z,88
2022-11-24T09:00:00.396Z,88
2022-11-24T09:10:00.359Z,88
2022-11-24T09:20:00.334Z,87
2022-11-24T09:30:00.316Z,88
2022-11-24T09:40:00.341Z,88
2022-11-24T09:50:00.309Z,87
2022-11-24T10:00:00.378Z,87
2022-11-24T10:10:00.667Z,87
2022-11-24T10:20:00.367Z,87
2022-11-24T10:30:00.367Z,87
2022-11-24T10:40:00.863Z,87
2022-11-24T10:50:00.336Z,87
2022-11-24T11:00:00.414Z,86
2022-11-24T11:10:00.315Z,86
2022-11-24T11:20:02.942Z,86
2022-11-24T11:40:00.393Z,84
2022-11-24T11:50:00.330Z,83
2022-11-24T12:00:00.402Z,79
2022-11-24T12:10:00.310Z,78
2022-11-24T12:20:00.368Z,76
2022-11-24T12:30:00.326Z,75
2022-11-24T12:40:00.325Z,77
2022-11-24T12:50:00.352Z,77
2022-11-24T13:00:00.399Z,77
2022-11-24T13:10:00.321Z,75
2022-11-24T13:20:00.335Z,77
2022-11-24T13:30:00.334Z,77
2022-11-24T13:40:00.331Z,78
2022-11-24T13:50:00.421Z,78
2022-11-24T14:00:00.504Z,78
2022-11-24T14:10:00.351Z,79
2022-11-24T14:20:00.361Z,79
2022-11-24T14:30:00.344Z,79
2022-11-24T14:40:00.341Z,80
2022-11-24T14:50:00.542Z,80
2022-11-24T15:00:00.365Z,80
2022-11-24T15:10:00.436Z,80
2022-11-24T15:20:00.371Z,81
2022-11-24T15:30:00.326Z,81
2022-11-24T15:40:00.366Z,81
2022-11-24T15:50:00.311Z,81
2022-11-24T16:00:00.352Z,81
2022-11-24T16:10:00.326Z,81
2022-11-24T16:20:01.188Z,82
2022-11-24T16:30:00.357Z,82
2022-11-24T16:40:00.329Z,82
2022-11-24T16:50:00.362Z,82
2022-11-24T17:00:00.356Z,82
2022-11-24T17:10:00.538Z,83
2022-11-24T17:20:00.509Z,83
2022-11-24T17:30:00.368Z,83
2022-11-24T17:40:27.733Z,83
2022-11-24T17:50:00.362Z,83
2022-11-24T18:00:00.357Z,84
2022-11-24T18:10:00.351Z,84
2022-11-24T18:20:00.397Z,84
2022-11-24T18:30:00.519Z,84
2022-11-24T18:40:00.360Z,84
2022-11-24T18:50:00.404Z,84
2022-11-24T19:00:02.143Z,84
2022-11-24T19:10:00.329Z,84
2022-11-24T19:20:00.407Z,84
2022-11-24T19:30:00.333Z,84
2022-11-24T19:40:00.316Z,84
2022-11-24T19:50:00.344Z,84
2022-11-24T20:00:00.334Z,84
2022-11-24T20:10:07.864Z,85
2022-11-24T20:20:00.412Z,85
2022-11-24T20:30:00.411Z,85
2022-11-24T20:40:00.343Z,85
2022-11-24T20:50:00.363Z,85
2022-11-24T21:00:00.368Z,85
2022-11-24T21:10:00.348Z,85
2022-11-24T21:20:01.562Z,85
2022-11-24T21:30:00.349Z,85
2022-11-24T21:40:00.352Z,85
2022-11-24T21:50:00.337Z,85
2022-11-24T22:00:00.352Z,85
2022-11-24T22:10:00.324Z,85
2022-11-24T22:20:00.411Z,85
2022-11-24T22:30:00.370Z,85
2022-11-24T22:40:00.380Z,85
2022-11-24T22:50:00.333Z,85
2022-11-24T23:00:00.360Z,85
2022-11-24T23:10:00.501Z,86
2022-11-24T23:20:00.380Z,86
2022-11-24T23:30:00.299Z,86
2022-11-24T23:40:00.329Z,86
2022-11-24T23:50:00.326Z,86
